sensor_id;sensor_type;location;lat;lon;timestamp;P1;durP1;ratioP1;P2;durP2;ratioP2
4313;SDS011;2170;48.794;9.182;2023-12-20T00:01:01;2.20;;;2.10;;
4313;SDS011;2170;48.794;9.182;2023-12-20T00:03:28;2.30;;;2.07;;
4313;SDS011;2170;48.794;9.182;2023-12-20T00:05:55;2.80;;;1.87;;
4313;SDS011;2170;48.794;9.182;2023-12-20T00:08:23;2.03;;;1.93;;
4313;SDS011;2170;48.794;9.182;2023-12-20T00:10:50;2.40;;;2.30;;
4313;SDS011;2170;48.794;9.182;2023-12-20T00:13:16;2.10;;;2.00;;
4313;SDS011;2170;48.794;9.182;2023-12-20T00:15:43;2.10;;;2.00;;
4313;SDS011;2170;48.794;9.182;2023-12-20T00:18:10;2.20;;;2.10;;
4313;SDS011;2170;48.794;9.182;2023-12-20T00:20:36;1.77;;;1.77;;
4313;SDS011;2170;48.794;9.182;2023-12-20T00:23:03;1.87;;;1.77;;
4313;SDS011;2170;48.794;9.182;2023-12-20T00:25:31;1.90;;;1.80;;
4313;SDS011;2170;48.794;9.182;2023-12-20T00:27:58;2.30;;;2.20;;
4313;SDS011;2170;48.794;9.182;2023-12-20T00:30:24;1.90;;;1.80;;
4313;SDS011;2170;48.794;9.182;2023-12-20T00:32:51;2.10;;;2.00;;
4313;SDS011;2170;48.794;9.182;2023-12-20T00:35:18;2.00;;;1.90;;
4313;SDS011;2170;48.794;9.182;2023-12-20T00:37:45;2.10;;;2.00;;
4313;SDS011;2170;48.794;9.182;2023-12-20T00:40:11;1.97;;;1.87;;
4313;SDS011;2170;48.794;9.182;2023-12-20T00:42:39;2.60;;;2.40;;
4313;SDS011;2170;48.794;9.182;2023-12-20T00:45:06;1.63;;;1.53;;
4313;SDS011;2170;48.794;9.182;2023-12-20T00:47:33;1.90;;;1.80;;
4313;SDS011;2170;48.794;9.182;2023-12-20T00:50:00;1.70;;;1.63;;
4313;SDS011;2170;48.794;9.182;2023-12-20T00:52:27;1.90;;;1.80;;
4313;SDS011;2170;48.794;9.182;2023-12-20T00:54:53;1.70;;;1.63;;
4313;SDS011;2170;48.794;9.182;2023-12-20T00:57:20;1.70;;;1.60;;
4313;SDS011;2170;48.794;9.182;2023-12-20T00:59:48;1.40;;;1.30;;
4313;SDS011;2170;48.794;9.182;2023-12-20T01:02:16;1.87;;;1.77;;
4313;SDS011;2170;48.794;9.182;2023-12-20T01:05:10;1.90;;;1.80;;
4313;SDS011;2170;48.794;9.182;2023-12-20T01:08:03;1.67;;;1.67;;
4313;SDS011;2170;48.794;9.182;2023-12-20T01:11:21;1.80;;;1.70;;
4313;SDS011;2170;48.794;9.182;2023-12-20T01:14:05;1.50;;;1.40;;
4313;SDS011;2170;48.794;9.182;2023-12-20T02:28:57;1.70;;;1.70;;
4313;SDS011;2170;48.794;9.182;2023-12-20T05:17:44;0.70;;;0.70;;
4313;SDS011;2170;48.794;9.182;2023-12-20T05:21:14;0.83;;;0.70;;
4313;SDS011;2170;48.794;9.182;2023-12-20T05:23:53;0.83;;;0.70;;
4313;SDS011;2170;48.794;9.182;2023-12-20T05:26:46;0.80;;;0.80;;
4313;SDS011;2170;48.794;9.182;2023-12-20T05:29:38;0.70;;;0.70;;
4313;SDS011;2170;48.794;9.182;2023-12-20T05:32:34;0.80;;;0.80;;
4313;SDS011;2170;48.794;9.182;2023-12-20T05:35:30;1.23;;;0.90;;
4313;SDS011;2170;48.794;9.182;2023-12-20T05:38:08;0.67;;;0.67;;
4313;SDS011;2170;48.794;9.182;2023-12-20T05:41:07;0.60;;;0.60;;
4313;SDS011;2170;48.794;9.182;2023-12-20T05:44:05;0.80;;;0.80;;
4313;SDS011;2170;48.794;9.182;2023-12-20T05:47:13;0.90;;;0.90;;
4313;SDS011;2170;48.794;9.182;2023-12-20T05:50:51;0.80;;;0.80;;
4313;SDS011;2170;48.794;9.182;2023-12-20T06:04:08;1.37;;;1.30;;
4313;SDS011;2170;48.794;9.182;2023-12-20T06:20:36;0.80;;;0.80;;
4313;SDS011;2170;48.794;9.182;2023-12-20T06:30:32;2.30;;;1.40;;
4313;SDS011;2170;48.794;9.182;2023-12-20T06:33:47;0.87;;;0.87;;
4313;SDS011;2170;48.794;9.182;2023-12-20T06:36:36;1.00;;;1.00;;
4313;SDS011;2170;48.794;9.182;2023-12-20T06:40:29;1.20;;;1.20;;
4313;SDS011;2170;48.794;9.182;2023-12-20T06:42:56;2.17;;;1.17;;
4313;SDS011;2170;48.794;9.182;2023-12-20T06:46:06;1.03;;;1.00;;
4313;SDS011;2170;48.794;9.182;2023-12-20T06:49:13;1.30;;;1.30;;
4313;SDS011;2170;48.794;9.182;2023-12-20T06:51:59;1.50;;;1.40;;
4313;SDS011;2170;48.794;9.182;2023-12-20T06:54:57;1.60;;;1.50;;
4313;SDS011;2170;48.794;9.182;2023-12-20T06:57:38;1.20;;;1.20;;
4313;SDS011;2170;48.794;9.182;2023-12-20T07:00:22;1.10;;;1.10;;
4313;SDS011;2170;48.794;9.182;2023-12-20T07:03:03;1.00;;;1.00;;
4313;SDS011;2170;48.794;9.182;2023-12-20T07:05:59;1.20;;;1.10;;
4313;SDS011;2170;48.794;9.182;2023-12-20T07:08:55;1.20;;;1.20;;
4313;SDS011;2170;48.794;9.182;2023-12-20T07:11:51;1.10;;;1.10;;
4313;SDS011;2170;48.794;9.182;2023-12-20T07:14:32;1.57;;;1.13;;
4313;SDS011;2170;48.794;9.182;2023-12-20T07:17:12;1.50;;;1.50;;
4313;SDS011;2170;48.794;9.182;2023-12-20T07:19:54;1.47;;;1.47;;
4313;SDS011;2170;48.794;9.182;2023-12-20T07:22:46;2.87;;;2.67;;
4313;SDS011;2170;48.794;9.182;2023-12-20T07:25:31;2.10;;;2.00;;
4313;SDS011;2170;48.794;9.182;2023-12-20T07:28:34;2.63;;;2.43;;
4313;SDS011;2170;48.794;9.182;2023-12-20T07:31:21;2.83;;;2.63;;
4313;SDS011;2170;48.794;9.182;2023-12-20T07:34:01;2.70;;;2.50;;
4313;SDS011;2170;48.794;9.182;2023-12-20T07:37:01;2.70;;;2.60;;
4313;SDS011;2170;48.794;9.182;2023-12-20T07:39:48;3.37;;;3.17;;
4313;SDS011;2170;48.794;9.182;2023-12-20T07:42:36;3.07;;;2.87;;
4313;SDS011;2170;48.794;9.182;2023-12-20T07:45:08;2.43;;;2.33;;
4313;SDS011;2170;48.794;9.182;2023-12-20T07:48:21;3.23;;;3.03;;
4313;SDS011;2170;48.794;9.182;2023-12-20T07:51:18;3.20;;;3.00;;
4313;SDS011;2170;48.794;9.182;2023-12-20T07:54:07;3.00;;;2.80;;
4313;SDS011;2170;48.794;9.182;2023-12-20T07:56:50;3.43;;;3.23;;
4313;SDS011;2170;48.794;9.182;2023-12-20T07:59:39;4.57;;;4.20;;
4313;SDS011;2170;48.794;9.182;2023-12-20T08:02:16;3.07;;;2.87;;
4313;SDS011;2170;48.794;9.182;2023-12-20T08:05:15;3.67;;;3.47;;
4313;SDS011;2170;48.794;9.182;2023-12-20T08:08:17;3.40;;;3.20;;
4313;SDS011;2170;48.794;9.182;2023-12-20T08:20:23;3.47;;;3.27;;
4313;SDS011;2170;48.794;9.182;2023-12-20T08:22:59;3.50;;;3.30;;
4313;SDS011;2170;48.794;9.182;2023-12-20T08:25:39;3.70;;;3.40;;
4313;SDS011;2170;48.794;9.182;2023-12-20T08:28:23;3.70;;;3.40;;
4313;SDS011;2170;48.794;9.182;2023-12-20T08:33:56;3.57;;;3.23;;
4313;SDS011;2170;48.794;9.182;2023-12-20T08:36:41;3.93;;;3.63;;
4313;SDS011;2170;48.794;9.182;2023-12-20T08:39:21;3.63;;;3.33;;
4313;SDS011;2170;48.794;9.182;2023-12-20T08:42:01;3.90;;;3.47;;
4313;SDS011;2170;48.794;9.182;2023-12-20T08:46:49;3.80;;;3.60;;
4313;SDS011;2170;48.794;9.182;2023-12-20T08:47:42;4.00;;;3.60;;
4313;SDS011;2170;48.794;9.182;2023-12-20T08:50:54;3.43;;;3.23;;
4313;SDS011;2170;48.794;9.182;2023-12-20T08:53:45;3.20;;;3.00;;
4313;SDS011;2170;48.794;9.182;2023-12-20T08:56:23;4.10;;;3.80;;
4313;SDS011;2170;48.794;9.182;2023-12-20T08:59:25;3.70;;;3.40;;
4313;SDS011;2170;48.794;9.182;2023-12-20T09:01:53;3.43;;;3.20;;
4313;SDS011;2170;48.794;9.182;2023-12-20T09:04:26;3.60;;;3.10;;
4313;SDS011;2170;48.794;9.182;2023-12-20T09:06:54;3.23;;;3.03;;
4313;SDS011;2170;48.794;9.182;2023-12-20T09:09:21;3.10;;;2.90;;
4313;SDS011;2170;48.794;9.182;2023-12-20T09:11:47;5.03;;;3.90;;
4313;SDS011;2170;48.794;9.182;2023-12-20T09:14:16;3.53;;;3.33;;
4313;SDS011;2170;48.794;9.182;2023-12-20T09:16:42;3.20;;;3.00;;
4313;SDS011;2170;48.794;9.182;2023-12-20T09:19:09;4.20;;;3.80;;
4313;SDS011;2170;48.794;9.182;2023-12-20T09:21:37;3.90;;;3.53;;
4313;SDS011;2170;48.794;9.182;2023-12-20T09:24:04;3.13;;;2.87;;
4313;SDS011;2170;48.794;9.182;2023-12-20T09:26:31;3.70;;;3.10;;
4313;SDS011;2170;48.794;9.182;2023-12-20T09:28:58;2.83;;;2.73;;
4313;SDS011;2170;48.794;9.182;2023-12-20T09:31:24;3.17;;;2.97;;
4313;SDS011;2170;48.794;9.182;2023-12-20T09:33:51;4.30;;;3.40;;
4313;SDS011;2170;48.794;9.182;2023-12-20T09:36:18;2.90;;;2.50;;
4313;SDS011;2170;48.794;9.182;2023-12-20T09:38:47;4.17;;;2.60;;
4313;SDS011;2170;48.794;9.182;2023-12-20T09:41:13;2.17;;;2.00;;
4313;SDS011;2170;48.794;9.182;2023-12-20T09:43:41;5.10;;;2.40;;
4313;SDS011;2170;48.794;9.182;2023-12-20T09:46:08;2.40;;;2.20;;
4313;SDS011;2170;48.794;9.182;2023-12-20T09:48:41;3.63;;;2.23;;
4313;SDS011;2170;48.794;9.182;2023-12-20T09:51:08;3.07;;;1.80;;
4313;SDS011;2170;48.794;9.182;2023-12-20T09:53:35;2.20;;;2.00;;
4313;SDS011;2170;48.794;9.182;2023-12-20T09:56:05;2.77;;;2.13;;
4313;SDS011;2170;48.794;9.182;2023-12-20T09:58:32;2.00;;;1.80;;
4313;SDS011;2170;48.794;9.182;2023-12-20T10:01:02;2.03;;;1.70;;
4313;SDS011;2170;48.794;9.182;2023-12-20T10:03:29;4.13;;;2.13;;
4313;SDS011;2170;48.794;9.182;2023-12-20T10:05:57;2.60;;;2.00;;
4313;SDS011;2170;48.794;9.182;2023-12-20T10:08:25;4.57;;;2.00;;
4313;SDS011;2170;48.794;9.182;2023-12-20T10:10:52;3.97;;;1.97;;
4313;SDS011;2170;48.794;9.182;2023-12-20T10:13:21;3.97;;;1.93;;
4313;SDS011;2170;48.794;9.182;2023-12-20T10:15:48;2.57;;;2.30;;
4313;SDS011;2170;48.794;9.182;2023-12-20T10:18:16;5.67;;;2.00;;
4313;SDS011;2170;48.794;9.182;2023-12-20T10:20:43;3.03;;;1.93;;
4313;SDS011;2170;48.794;9.182;2023-12-20T10:23:11;2.70;;;2.00;;
4313;SDS011;2170;48.794;9.182;2023-12-20T10:25:38;2.60;;;1.80;;
4313;SDS011;2170;48.794;9.182;2023-12-20T10:28:09;3.03;;;1.77;;
4313;SDS011;2170;48.794;9.182;2023-12-20T10:30:39;2.40;;;2.00;;
4313;SDS011;2170;48.794;9.182;2023-12-20T10:33:06;1.70;;;1.60;;
4313;SDS011;2170;48.794;9.182;2023-12-20T10:35:33;5.33;;;2.40;;
4313;SDS011;2170;48.794;9.182;2023-12-20T10:38:02;1.73;;;1.60;;
4313;SDS011;2170;48.794;9.182;2023-12-20T10:40:30;4.37;;;2.60;;
4313;SDS011;2170;48.794;9.182;2023-12-20T10:42:57;2.57;;;2.33;;
4313;SDS011;2170;48.794;9.182;2023-12-20T10:45:26;3.97;;;2.40;;
4313;SDS011;2170;48.794;9.182;2023-12-20T10:47:54;3.93;;;2.43;;
4313;SDS011;2170;48.794;9.182;2023-12-20T10:50:24;4.87;;;2.00;;
4313;SDS011;2170;48.794;9.182;2023-12-20T10:52:52;6.17;;;2.20;;
4313;SDS011;2170;48.794;9.182;2023-12-20T10:55:21;4.80;;;2.47;;
4313;SDS011;2170;48.794;9.182;2023-12-20T10:57:48;3.80;;;2.10;;
4313;SDS011;2170;48.794;9.182;2023-12-20T11:00:17;2.40;;;2.20;;
4313;SDS011;2170;48.794;9.182;2023-12-20T11:02:45;2.53;;;2.10;;
4313;SDS011;2170;48.794;9.182;2023-12-20T11:05:22;3.30;;;2.40;;
4313;SDS011;2170;48.794;9.182;2023-12-20T11:07:56;3.07;;;1.93;;
4313;SDS011;2170;48.794;9.182;2023-12-20T11:10:29;2.70;;;2.03;;
4313;SDS011;2170;48.794;9.182;2023-12-20T11:12:58;4.63;;;2.07;;
4313;SDS011;2170;48.794;9.182;2023-12-20T11:15:34;4.90;;;2.47;;
4313;SDS011;2170;48.794;9.182;2023-12-20T11:18:02;1.87;;;1.77;;
4313;SDS011;2170;48.794;9.182;2023-12-20T11:20:36;5.43;;;2.37;;
4313;SDS011;2170;48.794;9.182;2023-12-20T11:23:04;2.00;;;1.87;;
4313;SDS011;2170;48.794;9.182;2023-12-20T11:25:38;3.60;;;2.30;;
4313;SDS011;2170;48.794;9.182;2023-12-20T11:28:13;4.00;;;2.20;;
4313;SDS011;2170;48.794;9.182;2023-12-20T11:30:40;5.50;;;2.30;;
4313;SDS011;2170;48.794;9.182;2023-12-20T11:33:08;2.93;;;2.60;;
4313;SDS011;2170;48.794;9.182;2023-12-20T11:35:36;5.70;;;2.10;;
4313;SDS011;2170;48.794;9.182;2023-12-20T11:38:04;9.33;;;3.00;;
4313;SDS011;2170;48.794;9.182;2023-12-20T11:40:33;3.73;;;2.27;;
4313;SDS011;2170;48.794;9.182;2023-12-20T11:43:02;3.50;;;2.37;;
4313;SDS011;2170;48.794;9.182;2023-12-20T11:45:29;2.30;;;2.10;;
4313;SDS011;2170;48.794;9.182;2023-12-20T11:47:57;5.80;;;2.20;;
4313;SDS011;2170;48.794;9.182;2023-12-20T11:50:24;4.27;;;2.03;;
4313;SDS011;2170;48.794;9.182;2023-12-20T11:52:52;2.90;;;2.13;;
4313;SDS011;2170;48.794;9.182;2023-12-20T11:55:20;2.37;;;2.10;;
4313;SDS011;2170;48.794;9.182;2023-12-20T11:57:47;6.50;;;2.40;;
4313;SDS011;2170;48.794;9.182;2023-12-20T12:00:14;2.37;;;1.70;;
4313;SDS011;2170;48.794;9.182;2023-12-20T12:02:41;2.20;;;2.00;;
4313;SDS011;2170;48.794;9.182;2023-12-20T12:05:08;4.03;;;2.37;;
4313;SDS011;2170;48.794;9.182;2023-12-20T12:07:35;5.33;;;2.20;;
4313;SDS011;2170;48.794;9.182;2023-12-20T12:10:04;2.97;;;2.20;;
4313;SDS011;2170;48.794;9.182;2023-12-20T12:12:31;4.40;;;2.37;;
4313;SDS011;2170;48.794;9.182;2023-12-20T12:14:58;4.20;;;2.67;;
4313;SDS011;2170;48.794;9.182;2023-12-20T12:17:25;4.27;;;2.50;;
4313;SDS011;2170;48.794;9.182;2023-12-20T12:19:52;6.30;;;3.03;;
4313;SDS011;2170;48.794;9.182;2023-12-20T12:22:29;4.80;;;2.50;;
4313;SDS011;2170;48.794;9.182;2023-12-20T12:24:58;3.80;;;2.50;;
4313;SDS011;2170;48.794;9.182;2023-12-20T12:27:29;7.23;;;2.90;;
4313;SDS011;2170;48.794;9.182;2023-12-20T12:30:02;4.00;;;2.30;;
4313;SDS011;2170;48.794;9.182;2023-12-20T12:32:32;2.23;;;2.07;;
4313;SDS011;2170;48.794;9.182;2023-12-20T12:35:02;3.07;;;2.57;;
4313;SDS011;2170;48.794;9.182;2023-12-20T12:37:31;3.20;;;2.20;;
4313;SDS011;2170;48.794;9.182;2023-12-20T12:40:00;6.13;;;3.40;;
4313;SDS011;2170;48.794;9.182;2023-12-20T12:42:28;3.33;;;2.50;;
4313;SDS011;2170;48.794;9.182;2023-12-20T12:44:55;7.60;;;2.90;;
4313;SDS011;2170;48.794;9.182;2023-12-20T12:47:22;3.20;;;2.10;;
4313;SDS011;2170;48.794;9.182;2023-12-20T12:49:49;5.07;;;2.47;;
4313;SDS011;2170;48.794;9.182;2023-12-20T12:52:18;4.23;;;2.20;;
4313;SDS011;2170;48.794;9.182;2023-12-20T12:54:43;6.37;;;2.73;;
4313;SDS011;2170;48.794;9.182;2023-12-20T12:57:11;3.47;;;2.23;;
4313;SDS011;2170;48.794;9.182;2023-12-20T12:59:41;3.57;;;2.20;;
4313;SDS011;2170;48.794;9.182;2023-12-20T13:02:09;5.57;;;2.20;;
4313;SDS011;2170;48.794;9.182;2023-12-20T13:04:35;4.23;;;2.17;;
4313;SDS011;2170;48.794;9.182;2023-12-20T13:07:04;8.73;;;2.40;;
4313;SDS011;2170;48.794;9.182;2023-12-20T13:09:31;4.80;;;2.33;;
4313;SDS011;2170;48.794;9.182;2023-12-20T13:11:58;4.83;;;2.00;;
4313;SDS011;2170;48.794;9.182;2023-12-20T13:14:27;5.80;;;2.37;;
4313;SDS011;2170;48.794;9.182;2023-12-20T13:16:55;6.13;;;2.50;;
4313;SDS011;2170;48.794;9.182;2023-12-20T13:19:22;3.90;;;1.90;;
4313;SDS011;2170;48.794;9.182;2023-12-20T13:21:48;1.83;;;1.60;;
4313;SDS011;2170;48.794;9.182;2023-12-20T13:24:15;3.83;;;1.90;;
4313;SDS011;2170;48.794;9.182;2023-12-20T13:26:42;3.63;;;2.10;;
4313;SDS011;2170;48.794;9.182;2023-12-20T13:29:09;4.67;;;1.97;;
4313;SDS011;2170;48.794;9.182;2023-12-20T13:31:36;4.90;;;2.30;;
4313;SDS011;2170;48.794;9.182;2023-12-20T13:34:04;2.60;;;2.10;;
4313;SDS011;2170;48.794;9.182;2023-12-20T13:36:30;4.07;;;2.00;;
4313;SDS011;2170;48.794;9.182;2023-12-20T13:38:57;2.83;;;2.07;;
4313;SDS011;2170;48.794;9.182;2023-12-20T13:41:24;4.47;;;2.00;;
4313;SDS011;2170;48.794;9.182;2023-12-20T13:43:50;2.80;;;2.17;;
4313;SDS011;2170;48.794;9.182;2023-12-20T13:46:17;4.27;;;2.00;;
4313;SDS011;2170;48.794;9.182;2023-12-20T13:48:44;3.27;;;1.87;;
4313;SDS011;2170;48.794;9.182;2023-12-20T13:51:12;4.33;;;1.87;;
4313;SDS011;2170;48.794;9.182;2023-12-20T13:53:39;2.13;;;1.90;;
4313;SDS011;2170;48.794;9.182;2023-12-20T13:56:06;3.63;;;1.83;;
4313;SDS011;2170;48.794;9.182;2023-12-20T13:58:33;3.90;;;1.90;;
4313;SDS011;2170;48.794;9.182;2023-12-20T14:01:00;2.63;;;1.93;;
4313;SDS011;2170;48.794;9.182;2023-12-20T14:03:26;4.97;;;1.77;;
4313;SDS011;2170;48.794;9.182;2023-12-20T14:05:53;2.10;;;1.77;;
4313;SDS011;2170;48.794;9.182;2023-12-20T14:08:21;4.00;;;2.10;;
4313;SDS011;2170;48.794;9.182;2023-12-20T14:10:49;2.50;;;2.00;;
4313;SDS011;2170;48.794;9.182;2023-12-20T14:13:16;3.30;;;2.20;;
4313;SDS011;2170;48.794;9.182;2023-12-20T14:15:42;5.57;;;2.03;;
4313;SDS011;2170;48.794;9.182;2023-12-20T14:18:09;3.53;;;2.40;;
4313;SDS011;2170;48.794;9.182;2023-12-20T14:20:37;2.13;;;2.03;;
4313;SDS011;2170;48.794;9.182;2023-12-20T14:23:04;6.13;;;2.40;;
4313;SDS011;2170;48.794;9.182;2023-12-20T14:25:32;4.07;;;2.00;;
4313;SDS011;2170;48.794;9.182;2023-12-20T14:28:01;3.70;;;2.30;;
4313;SDS011;2170;48.794;9.182;2023-12-20T14:30:28;3.50;;;2.10;;
4313;SDS011;2170;48.794;9.182;2023-12-20T14:32:55;2.07;;;1.87;;
4313;SDS011;2170;48.794;9.182;2023-12-20T14:35:21;3.17;;;1.90;;
4313;SDS011;2170;48.794;9.182;2023-12-20T14:37:48;3.43;;;2.07;;
4313;SDS011;2170;48.794;9.182;2023-12-20T14:40:15;2.17;;;2.03;;
4313;SDS011;2170;48.794;9.182;2023-12-20T14:42:44;2.40;;;2.20;;
4313;SDS011;2170;48.794;9.182;2023-12-20T14:45:11;3.73;;;2.27;;
4313;SDS011;2170;48.794;9.182;2023-12-20T14:47:38;3.90;;;2.03;;
4313;SDS011;2170;48.794;9.182;2023-12-20T14:50:05;3.07;;;2.30;;
4313;SDS011;2170;48.794;9.182;2023-12-20T14:52:33;2.30;;;2.00;;
4313;SDS011;2170;48.794;9.182;2023-12-20T14:55:00;2.77;;;2.20;;
4313;SDS011;2170;48.794;9.182;2023-12-20T14:57:27;3.70;;;2.60;;
4313;SDS011;2170;48.794;9.182;2023-12-20T14:59:55;2.80;;;2.47;;
4313;SDS011;2170;48.794;9.182;2023-12-20T15:02:22;2.83;;;2.50;;
4313;SDS011;2170;48.794;9.182;2023-12-20T15:04:49;3.33;;;2.27;;
4313;SDS011;2170;48.794;9.182;2023-12-20T15:07:16;3.03;;;2.33;;
4313;SDS011;2170;48.794;9.182;2023-12-20T15:09:43;4.90;;;2.10;;
4313;SDS011;2170;48.794;9.182;2023-12-20T15:12:11;4.23;;;2.60;;
4313;SDS011;2170;48.794;9.182;2023-12-20T15:14:38;4.50;;;2.70;;
4313;SDS011;2170;48.794;9.182;2023-12-20T15:17:06;3.43;;;2.07;;
4313;SDS011;2170;48.794;9.182;2023-12-20T15:19:32;4.20;;;2.20;;
4313;SDS011;2170;48.794;9.182;2023-12-20T15:21:59;2.90;;;2.20;;
4313;SDS011;2170;48.794;9.182;2023-12-20T15:24:26;4.10;;;1.90;;
4313;SDS011;2170;48.794;9.182;2023-12-20T15:27:01;4.43;;;2.20;;
4313;SDS011;2170;48.794;9.182;2023-12-20T15:29:28;2.83;;;2.43;;
4313;SDS011;2170;48.794;9.182;2023-12-20T15:31:56;2.60;;;2.13;;
4313;SDS011;2170;48.794;9.182;2023-12-20T15:34:24;3.70;;;1.80;;
4313;SDS011;2170;48.794;9.182;2023-12-20T15:36:50;4.73;;;2.17;;
4313;SDS011;2170;48.794;9.182;2023-12-20T15:39:17;2.80;;;2.60;;
4313;SDS011;2170;48.794;9.182;2023-12-20T15:41:44;3.50;;;3.30;;
4313;SDS011;2170;48.794;9.182;2023-12-20T15:44:10;4.87;;;2.43;;
4313;SDS011;2170;48.794;9.182;2023-12-20T15:46:37;2.00;;;1.90;;
4313;SDS011;2170;48.794;9.182;2023-12-20T15:49:04;5.27;;;1.90;;
4313;SDS011;2170;48.794;9.182;2023-12-20T15:51:32;4.30;;;2.50;;
4313;SDS011;2170;48.794;9.182;2023-12-20T15:54:00;3.33;;;2.50;;
4313;SDS011;2170;48.794;9.182;2023-12-20T15:56:31;3.30;;;2.20;;
4313;SDS011;2170;48.794;9.182;2023-12-20T15:58:57;3.73;;;2.73;;
4313;SDS011;2170;48.794;9.182;2023-12-20T16:01:25;4.50;;;1.83;;
4313;SDS011;2170;48.794;9.182;2023-12-20T16:03:51;3.23;;;2.10;;
4313;SDS011;2170;48.794;9.182;2023-12-20T16:06:18;2.70;;;2.37;;
4313;SDS011;2170;48.794;9.182;2023-12-20T16:08:47;4.23;;;2.63;;
4313;SDS011;2170;48.794;9.182;2023-12-20T16:11:14;3.70;;;2.30;;
4313;SDS011;2170;48.794;9.182;2023-12-20T16:13:42;4.60;;;2.90;;
4313;SDS011;2170;48.794;9.182;2023-12-20T16:16:08;4.03;;;2.60;;
4313;SDS011;2170;48.794;9.182;2023-12-20T16:18:36;4.13;;;3.07;;
4313;SDS011;2170;48.794;9.182;2023-12-20T16:21:02;3.80;;;2.83;;
4313;SDS011;2170;48.794;9.182;2023-12-20T16:23:30;4.33;;;2.60;;
4313;SDS011;2170;48.794;9.182;2023-12-20T16:25:59;3.17;;;2.60;;
4313;SDS011;2170;48.794;9.182;2023-12-20T16:28:26;2.60;;;2.20;;
4313;SDS011;2170;48.794;9.182;2023-12-20T16:30:53;2.57;;;2.30;;
4313;SDS011;2170;48.794;9.182;2023-12-20T16:33:21;3.67;;;3.37;;
4313;SDS011;2170;48.794;9.182;2023-12-20T16:35:48;4.83;;;3.17;;
4313;SDS011;2170;48.794;9.182;2023-12-20T16:38:14;2.83;;;2.63;;
4313;SDS011;2170;48.794;9.182;2023-12-20T16:40:41;4.63;;;3.20;;
4313;SDS011;2170;48.794;9.182;2023-12-20T16:43:10;2.57;;;2.30;;
4313;SDS011;2170;48.794;9.182;2023-12-20T16:45:37;5.60;;;2.73;;
4313;SDS011;2170;48.794;9.182;2023-12-20T16:48:04;3.40;;;2.90;;
4313;SDS011;2170;48.794;9.182;2023-12-20T16:50:31;3.23;;;3.00;;
4313;SDS011;2170;48.794;9.182;2023-12-20T16:52:57;4.47;;;2.60;;
4313;SDS011;2170;48.794;9.182;2023-12-20T16:55:24;2.77;;;2.40;;
4313;SDS011;2170;48.794;9.182;2023-12-20T16:57:51;2.83;;;2.60;;
4313;SDS011;2170;48.794;9.182;2023-12-20T17:00:19;4.60;;;3.07;;
4313;SDS011;2170;48.794;9.182;2023-12-20T17:02:47;5.13;;;3.27;;
4313;SDS011;2170;48.794;9.182;2023-12-20T17:05:15;3.90;;;3.50;;
4313;SDS011;2170;48.794;9.182;2023-12-20T17:07:52;3.20;;;3.00;;
4313;SDS011;2170;48.794;9.182;2023-12-20T17:10:32;4.57;;;3.30;;
4313;SDS011;2170;48.794;9.182;2023-12-20T17:13:28;2.90;;;2.70;;
4313;SDS011;2170;48.794;9.182;2023-12-20T17:19:24;3.80;;;3.37;;
4313;SDS011;2170;48.794;9.182;2023-12-20T17:22:09;2.97;;;2.70;;
4313;SDS011;2170;48.794;9.182;2023-12-20T17:24:52;6.23;;;3.47;;
4313;SDS011;2170;48.794;9.182;2023-12-20T17:27:44;5.20;;;3.03;;
4313;SDS011;2170;48.794;9.182;2023-12-20T17:30:25;4.50;;;2.63;;
4313;SDS011;2170;48.794;9.182;2023-12-20T17:33:09;3.07;;;2.53;;
4313;SDS011;2170;48.794;9.182;2023-12-20T17:35:49;3.00;;;2.80;;
4313;SDS011;2170;48.794;9.182;2023-12-20T17:38:47;3.03;;;2.60;;
4313;SDS011;2170;48.794;9.182;2023-12-20T17:41:25;2.43;;;2.20;;
4313;SDS011;2170;48.794;9.182;2023-12-20T17:43:59;2.90;;;2.70;;
4313;SDS011;2170;48.794;9.182;2023-12-20T17:46:42;3.00;;;2.80;;
4313;SDS011;2170;48.794;9.182;2023-12-20T17:49:20;3.87;;;2.63;;
4313;SDS011;2170;48.794;9.182;2023-12-20T17:51:56;3.10;;;2.80;;
4313;SDS011;2170;48.794;9.182;2023-12-20T17:54:30;6.00;;;3.17;;
4313;SDS011;2170;48.794;9.182;2023-12-20T17:57:04;4.27;;;2.40;;
4313;SDS011;2170;48.794;9.182;2023-12-20T17:59:50;3.63;;;2.70;;
4313;SDS011;2170;48.794;9.182;2023-12-20T18:02:27;2.83;;;2.63;;
4313;SDS011;2170;48.794;9.182;2023-12-20T18:05:10;3.70;;;3.50;;
4313;SDS011;2170;48.794;9.182;2023-12-20T18:07:49;2.40;;;2.30;;
4313;SDS011;2170;48.794;9.182;2023-12-20T18:10:19;3.43;;;2.47;;
4313;SDS011;2170;48.794;9.182;2023-12-20T18:13:11;3.27;;;2.97;;
4313;SDS011;2170;48.794;9.182;2023-12-20T18:15:43;2.47;;;2.37;;
4313;SDS011;2170;48.794;9.182;2023-12-20T18:18:15;2.40;;;2.30;;
4313;SDS011;2170;48.794;9.182;2023-12-20T18:20:52;5.63;;;2.73;;
4313;SDS011;2170;48.794;9.182;2023-12-20T18:23:27;2.50;;;2.30;;
4313;SDS011;2170;48.794;9.182;2023-12-20T18:25:59;1.93;;;1.83;;
4313;SDS011;2170;48.794;9.182;2023-12-20T18:28:39;2.80;;;2.20;;
4313;SDS011;2170;48.794;9.182;2023-12-20T18:31:11;1.80;;;1.70;;
4313;SDS011;2170;48.794;9.182;2023-12-20T18:33:58;2.70;;;1.80;;
4313;SDS011;2170;48.794;9.182;2023-12-20T18:36:38;2.10;;;1.90;;
4313;SDS011;2170;48.794;9.182;2023-12-20T18:39:26;1.90;;;1.80;;
4313;SDS011;2170;48.794;9.182;2023-12-20T18:42:02;2.00;;;1.70;;
4313;SDS011;2170;48.794;9.182;2023-12-20T18:44:55;2.10;;;2.00;;
4313;SDS011;2170;48.794;9.182;2023-12-20T18:47:39;2.30;;;1.73;;
4313;SDS011;2170;48.794;9.182;2023-12-20T18:50:21;1.60;;;1.50;;
4313;SDS011;2170;48.794;9.182;2023-12-20T18:53:10;1.80;;;1.67;;
4313;SDS011;2170;48.794;9.182;2023-12-20T18:55:47;2.20;;;2.00;;
4313;SDS011;2170;48.794;9.182;2023-12-20T18:58:17;1.97;;;1.87;;
4313;SDS011;2170;48.794;9.182;2023-12-20T19:00:54;2.83;;;1.97;;
4313;SDS011;2170;48.794;9.182;2023-12-20T19:03:32;2.13;;;2.03;;
4313;SDS011;2170;48.794;9.182;2023-12-20T19:06:07;3.37;;;2.67;;
4313;SDS011;2170;48.794;9.182;2023-12-20T19:08:38;5.90;;;2.43;;
4313;SDS011;2170;48.794;9.182;2023-12-20T19:11:16;2.23;;;2.00;;
4313;SDS011;2170;48.794;9.182;2023-12-20T19:13:50;2.20;;;2.00;;
4313;SDS011;2170;48.794;9.182;2023-12-20T19:16:23;3.83;;;2.50;;
4313;SDS011;2170;48.794;9.182;2023-12-20T19:18:52;3.10;;;2.03;;
4313;SDS011;2170;48.794;9.182;2023-12-20T19:21:28;2.40;;;2.20;;
4313;SDS011;2170;48.794;9.182;2023-12-20T19:24:06;2.00;;;1.90;;
4313;SDS011;2170;48.794;9.182;2023-12-20T19:26:37;3.90;;;2.03;;
4313;SDS011;2170;48.794;9.182;2023-12-20T19:29:18;3.00;;;2.10;;
4313;SDS011;2170;48.794;9.182;2023-12-20T19:32:04;2.30;;;2.10;;
4313;SDS011;2170;48.794;9.182;2023-12-20T19:37:37;3.40;;;2.47;;
4313;SDS011;2170;48.794;9.182;2023-12-20T19:40:18;4.03;;;2.20;;
4313;SDS011;2170;48.794;9.182;2023-12-20T19:42:49;3.03;;;2.70;;
4313;SDS011;2170;48.794;9.182;2023-12-20T19:45:19;5.60;;;2.80;;
4313;SDS011;2170;48.794;9.182;2023-12-20T19:48:04;2.43;;;2.33;;
4313;SDS011;2170;48.794;9.182;2023-12-20T19:50:41;3.70;;;2.77;;
4313;SDS011;2170;48.794;9.182;2023-12-20T19:53:17;4.50;;;2.60;;
4313;SDS011;2170;48.794;9.182;2023-12-20T19:55:53;6.10;;;2.40;;
4313;SDS011;2170;48.794;9.182;2023-12-20T19:58:29;2.97;;;2.10;;
4313;SDS011;2170;48.794;9.182;2023-12-20T20:01:09;3.43;;;2.70;;
4313;SDS011;2170;48.794;9.182;2023-12-20T20:03:49;5.43;;;2.97;;
4313;SDS011;2170;48.794;9.182;2023-12-20T20:06:21;3.13;;;2.90;;
4313;SDS011;2170;48.794;9.182;2023-12-20T20:09:01;4.40;;;3.23;;
4313;SDS011;2170;48.794;9.182;2023-12-20T20:11:49;2.90;;;2.70;;
4313;SDS011;2170;48.794;9.182;2023-12-20T20:14:26;5.53;;;3.67;;
4313;SDS011;2170;48.794;9.182;2023-12-20T20:16:59;5.03;;;3.60;;
4313;SDS011;2170;48.794;9.182;2023-12-20T20:19:37;4.03;;;3.07;;
4313;SDS011;2170;48.794;9.182;2023-12-20T20:22:12;3.33;;;2.80;;
4313;SDS011;2170;48.794;9.182;2023-12-20T20:24:50;5.77;;;2.93;;
4313;SDS011;2170;48.794;9.182;2023-12-20T20:27:28;4.20;;;2.67;;
4313;SDS011;2170;48.794;9.182;2023-12-20T20:30:14;2.70;;;2.50;;
4313;SDS011;2170;48.794;9.182;2023-12-20T20:32:46;2.43;;;2.33;;
4313;SDS011;2170;48.794;9.182;2023-12-20T20:35:29;3.50;;;2.67;;
4313;SDS011;2170;48.794;9.182;2023-12-20T20:38:12;2.77;;;2.57;;
4313;SDS011;2170;48.794;9.182;2023-12-20T20:40:58;3.20;;;2.77;;
4313;SDS011;2170;48.794;9.182;2023-12-20T20:43:31;3.50;;;2.40;;
4313;SDS011;2170;48.794;9.182;2023-12-20T20:46:03;3.40;;;3.07;;
4313;SDS011;2170;48.794;9.182;2023-12-20T20:48:35;2.97;;;2.77;;